sensor_id;sensor_type;location;lat;lon;timestamp;P1;durP1;ratioP1;P2;durP2;ratioP2
49296;SDS011;35163;48.878;18.040;2022-09-09T00:04:10;5.57;;;1.67;;
49296;SDS011;35163;48.878;18.040;2022-09-09T00:06:58;3.92;;;1.60;;
49296;SDS011;35163;48.878;18.040;2022-09-09T00:09:46;5.65;;;1.35;;
49296;SDS011;35163;48.878;18.040;2022-09-09T00:12:17;3.10;;;1.55;;
49296;SDS011;35163;48.878;18.040;2022-09-09T00:14:54;3.22;;;1.42;;
49296;SDS011;35163;48.878;18.040;2022-09-09T00:17:39;9.65;;;1.63;;
49296;SDS011;35163;48.878;18.040;2022-09-09T00:22:53;6.43;;;1.67;;
49296;SDS011;35163;48.878;18.040;2022-09-09T00:25:31;3.75;;;1.67;;
49296;SDS011;35163;48.878;18.040;2022-09-09T00:28:07;4.10;;;1.85;;
49296;SDS011;35163;48.878;18.040;2022-09-09T00:30:43;3.67;;;1.67;;
49296;SDS011;35163;48.878;18.040;2022-09-09T00:33:15;3.47;;;1.80;;
49296;SDS011;35163;48.878;18.040;2022-09-09T00:35:48;2.55;;;1.60;;
49296;SDS011;35163;48.878;18.040;2022-09-09T00:41:06;7.03;;;1.80;;
49296;SDS011;35163;48.878;18.040;2022-09-09T00:43:38;3.75;;;1.98;;
49296;SDS011;35163;48.878;18.040;2022-09-09T00:51:59;3.92;;;1.80;;
49296;SDS011;35163;48.878;18.040;2022-09-09T01:03:08;4.65;;;1.80;;
49296;SDS011;35163;48.878;18.040;2022-09-09T01:06:16;2.53;;;1.60;;
49296;SDS011;35163;48.878;18.040;2022-09-09T01:11:41;6.70;;;2.20;;
49296;SDS011;35163;48.878;18.040;2022-09-09T01:14:22;4.43;;;2.00;;
49296;SDS011;35163;48.878;18.040;2022-09-09T01:16:53;2.85;;;1.73;;
49296;SDS011;35163;48.878;18.040;2022-09-09T01:19:28;2.58;;;1.45;;
49296;SDS011;35163;48.878;18.040;2022-09-09T01:28:10;5.03;;;1.90;;
49296;SDS011;35163;48.878;18.040;2022-09-09T01:30:42;4.30;;;2.05;;
49296;SDS011;35163;48.878;18.040;2022-09-09T01:33:15;3.53;;;1.90;;
49296;SDS011;35163;48.878;18.040;2022-09-09T01:38:27;2.92;;;1.90;;
49296;SDS011;35163;48.878;18.040;2022-09-09T01:40:55;4.22;;;1.83;;
49296;SDS011;35163;48.878;18.040;2022-09-09T01:43:21;3.88;;;1.98;;
49296;SDS011;35163;48.878;18.040;2022-09-09T01:45:50;6.43;;;2.58;;
49296;SDS011;35163;48.878;18.040;2022-09-09T01:48:21;7.45;;;2.10;;
49296;SDS011;35163;48.878;18.040;2022-09-09T01:50:49;3.40;;;1.63;;
49296;SDS011;35163;48.878;18.040;2022-09-09T01:53:16;3.20;;;2.00;;
49296;SDS011;35163;48.878;18.040;2022-09-09T01:55:46;5.75;;;2.30;;
49296;SDS011;35163;48.878;18.040;2022-09-09T01:58:34;3.15;;;1.80;;
49296;SDS011;35163;48.878;18.040;2022-09-09T02:04:13;4.50;;;2.28;;
49296;SDS011;35163;48.878;18.040;2022-09-09T02:07:05;5.53;;;2.47;;
49296;SDS011;35163;48.878;18.040;2022-09-09T02:09:37;5.25;;;2.40;;
49296;SDS011;35163;48.878;18.040;2022-09-09T02:12:11;5.40;;;2.60;;
49296;SDS011;35163;48.878;18.040;2022-09-09T02:14:46;7.82;;;2.70;;
49296;SDS011;35163;48.878;18.040;2022-09-09T02:17:19;4.65;;;2.42;;
49296;SDS011;35163;48.878;18.040;2022-09-09T02:22:22;4.43;;;2.58;;
49296;SDS011;35163;48.878;18.040;2022-09-09T02:24:52;9.00;;;3.03;;
49296;SDS011;35163;48.878;18.040;2022-09-09T02:27:23;5.43;;;3.50;;
49296;SDS011;35163;48.878;18.040;2022-09-09T02:29:50;5.75;;;2.85;;
49296;SDS011;35163;48.878;18.040;2022-09-09T02:32:20;8.68;;;3.40;;
49296;SDS011;35163;48.878;18.040;2022-09-09T02:35:00;8.10;;;3.53;;
49296;SDS011;35163;48.878;18.040;2022-09-09T02:37:33;4.90;;;2.58;;
49296;SDS011;35163;48.878;18.040;2022-09-09T02:40:03;7.53;;;2.70;;
49296;SDS011;35163;48.878;18.040;2022-09-09T02:42:38;7.38;;;3.13;;
49296;SDS011;35163;48.878;18.040;2022-09-09T02:45:07;5.30;;;2.78;;
49296;SDS011;35163;48.878;18.040;2022-09-09T02:47:35;4.07;;;2.38;;
49296;SDS011;35163;48.878;18.040;2022-09-09T02:50:21;4.05;;;2.13;;
49296;SDS011;35163;48.878;18.040;2022-09-09T02:53:16;5.35;;;2.65;;
49296;SDS011;35163;48.878;18.040;2022-09-09T02:56:08;9.80;;;3.10;;
49296;SDS011;35163;48.878;18.040;2022-09-09T02:58:42;5.03;;;2.60;;
49296;SDS011;35163;48.878;18.040;2022-09-09T03:01:08;9.27;;;2.60;;
49296;SDS011;35163;48.878;18.040;2022-09-09T03:03:35;4.25;;;2.75;;
49296;SDS011;35163;48.878;18.040;2022-09-09T03:06:02;8.50;;;3.33;;
49296;SDS011;35163;48.878;18.040;2022-09-09T03:08:28;8.75;;;3.53;;
49296;SDS011;35163;48.878;18.040;2022-09-09T03:10:55;6.43;;;3.65;;
49296;SDS011;35163;48.878;18.040;2022-09-09T03:13:25;7.60;;;3.53;;
49296;SDS011;35163;48.878;18.040;2022-09-09T03:15:52;7.97;;;4.03;;
49296;SDS011;35163;48.878;18.040;2022-09-09T03:18:18;9.43;;;4.30;;
49296;SDS011;35163;48.878;18.040;2022-09-09T03:20:45;15.15;;;5.07;;
49296;SDS011;35163;48.878;18.040;2022-09-09T03:23:14;9.15;;;4.35;;
49296;SDS011;35163;48.878;18.040;2022-09-09T03:25:50;8.95;;;4.45;;
49296;SDS011;35163;48.878;18.040;2022-09-09T03:28:18;7.03;;;3.92;;
49296;SDS011;35163;48.878;18.040;2022-09-09T03:30:44;7.28;;;4.30;;
49296;SDS011;35163;48.878;18.040;2022-09-09T03:33:11;12.10;;;4.78;;
49296;SDS011;35163;48.878;18.040;2022-09-09T03:35:38;9.63;;;4.97;;
49296;SDS011;35163;48.878;18.040;2022-09-09T03:38:05;11.45;;;3.90;;
49296;SDS011;35163;48.878;18.040;2022-09-09T03:40:32;7.68;;;3.72;;
49296;SDS011;35163;48.878;18.040;2022-09-09T03:42:58;9.30;;;4.05;;
49296;SDS011;35163;48.878;18.040;2022-09-09T03:45:25;7.85;;;4.15;;
49296;SDS011;35163;48.878;18.040;2022-09-09T03:47:52;8.35;;;4.10;;
49296;SDS011;35163;48.878;18.040;2022-09-09T03:50:18;12.38;;;4.63;;
49296;SDS011;35163;48.878;18.040;2022-09-09T03:52:45;9.10;;;4.20;;
49296;SDS011;35163;48.878;18.040;2022-09-09T03:55:12;14.82;;;6.65;;
49296;SDS011;35163;48.878;18.040;2022-09-09T03:57:39;10.90;;;5.03;;
49296;SDS011;35163;48.878;18.040;2022-09-09T04:00:06;8.43;;;4.85;;
49296;SDS011;35163;48.878;18.040;2022-09-09T04:02:34;11.20;;;4.85;;
49296;SDS011;35163;48.878;18.040;2022-09-09T04:05:00;8.10;;;4.20;;
49296;SDS011;35163;48.878;18.040;2022-09-09T04:07:27;10.98;;;4.60;;
49296;SDS011;35163;48.878;18.040;2022-09-09T04:09:54;11.43;;;4.55;;
49296;SDS011;35163;48.878;18.040;2022-09-09T04:12:21;9.73;;;4.28;;
49296;SDS011;35163;48.878;18.040;2022-09-09T04:14:48;10.90;;;5.00;;
49296;SDS011;35163;48.878;18.040;2022-09-09T04:17:15;9.18;;;5.00;;
49296;SDS011;35163;48.878;18.040;2022-09-09T04:19:42;15.60;;;5.82;;
49296;SDS011;35163;48.878;18.040;2022-09-09T04:22:08;14.10;;;7.07;;
49296;SDS011;35163;48.878;18.040;2022-09-09T04:24:35;12.52;;;5.75;;
49296;SDS011;35163;48.878;18.040;2022-09-09T04:27:02;11.90;;;5.90;;
49296;SDS011;35163;48.878;18.040;2022-09-09T04:29:28;11.45;;;5.15;;
49296;SDS011;35163;48.878;18.040;2022-09-09T04:31:55;7.38;;;4.30;;
49296;SDS011;35163;48.878;18.040;2022-09-09T04:34:22;8.75;;;4.43;;
49296;SDS011;35163;48.878;18.040;2022-09-09T04:36:48;8.25;;;4.53;;
49296;SDS011;35163;48.878;18.040;2022-09-09T04:39:15;8.25;;;4.30;;
49296;SDS011;35163;48.878;18.040;2022-09-09T04:41:41;11.57;;;5.20;;
49296;SDS011;35163;48.878;18.040;2022-09-09T04:44:08;8.73;;;4.20;;
49296;SDS011;35163;48.878;18.040;2022-09-09T04:46:36;8.45;;;4.88;;
49296;SDS011;35163;48.878;18.040;2022-09-09T04:49:02;8.27;;;4.50;;
49296;SDS011;35163;48.878;18.040;2022-09-09T04:51:29;8.43;;;4.55;;
49296;SDS011;35163;48.878;18.040;2022-09-09T04:53:57;9.70;;;5.30;;
49296;SDS011;35163;48.878;18.040;2022-09-09T04:56:24;8.85;;;5.07;;
49296;SDS011;35163;48.878;18.040;2022-09-09T04:58:53;8.60;;;4.90;;
49296;SDS011;35163;48.878;18.040;2022-09-09T05:01:21;11.50;;;5.15;;
49296;SDS011;35163;48.878;18.040;2022-09-09T05:03:49;8.57;;;4.68;;
49296;SDS011;35163;48.878;18.040;2022-09-09T05:06:17;7.97;;;4.30;;
49296;SDS011;35163;48.878;18.040;2022-09-09T05:08:45;10.30;;;4.68;;
49296;SDS011;35163;48.878;18.040;2022-09-09T05:11:15;8.48;;;5.43;;
49296;SDS011;35163;48.878;18.040;2022-09-09T05:13:44;13.55;;;5.38;;
49296;SDS011;35163;48.878;18.040;2022-09-09T05:16:12;8.55;;;5.15;;
49296;SDS011;35163;48.878;18.040;2022-09-09T05:18:39;7.53;;;4.07;;
49296;SDS011;35163;48.878;18.040;2022-09-09T05:21:07;10.10;;;5.03;;
49296;SDS011;35163;48.878;18.040;2022-09-09T05:23:34;16.50;;;5.80;;
49296;SDS011;35163;48.878;18.040;2022-09-09T05:26:01;19.75;;;5.82;;
49296;SDS011;35163;48.878;18.040;2022-09-09T05:28:29;8.57;;;4.78;;
49296;SDS011;35163;48.878;18.040;2022-09-09T05:30:57;10.27;;;5.88;;
49296;SDS011;35163;48.878;18.040;2022-09-09T05:33:25;11.93;;;6.38;;
49296;SDS011;35163;48.878;18.040;2022-09-09T05:35:58;13.30;;;6.50;;
49296;SDS011;35163;48.878;18.040;2022-09-09T05:38:26;13.30;;;5.70;;
49296;SDS011;35163;48.878;18.040;2022-09-09T05:40:54;10.88;;;5.70;;
49296;SDS011;35163;48.878;18.040;2022-09-09T05:43:23;13.32;;;5.90;;
49296;SDS011;35163;48.878;18.040;2022-09-09T05:46:03;12.52;;;5.63;;
49296;SDS011;35163;48.878;18.040;2022-09-09T05:48:35;15.93;;;5.40;;
49296;SDS011;35163;48.878;18.040;2022-09-09T05:51:04;10.68;;;5.20;;
49296;SDS011;35163;48.878;18.040;2022-09-09T05:53:33;45.60;;;7.35;;
49296;SDS011;35163;48.878;18.040;2022-09-09T05:56:07;23.25;;;6.78;;
49296;SDS011;35163;48.878;18.040;2022-09-09T05:58:38;11.85;;;5.53;;
49296;SDS011;35163;48.878;18.040;2022-09-09T06:03:34;18.38;;;8.80;;
49296;SDS011;35163;48.878;18.040;2022-09-09T06:06:02;17.20;;;8.77;;
49296;SDS011;35163;48.878;18.040;2022-09-09T06:08:37;18.00;;;9.25;;
49296;SDS011;35163;48.878;18.040;2022-09-09T06:11:27;18.75;;;9.88;;
49296;SDS011;35163;48.878;18.040;2022-09-09T06:13:57;19.67;;;10.70;;
49296;SDS011;35163;48.878;18.040;2022-09-09T06:16:25;23.50;;;11.95;;
49296;SDS011;35163;48.878;18.040;2022-09-09T06:18:54;22.75;;;12.20;;
49296;SDS011;35163;48.878;18.040;2022-09-09T06:21:23;21.60;;;12.40;;
49296;SDS011;35163;48.878;18.040;2022-09-09T06:23:51;28.90;;;13.05;;
49296;SDS011;35163;48.878;18.040;2022-09-09T06:26:29;23.13;;;12.02;;
49296;SDS011;35163;48.878;18.040;2022-09-09T06:28:58;28.77;;;11.75;;
49296;SDS011;35163;48.878;18.040;2022-09-09T06:31:26;22.83;;;11.63;;
49296;SDS011;35163;48.878;18.040;2022-09-09T06:33:57;23.60;;;10.10;;
49296;SDS011;35163;48.878;18.040;2022-09-09T06:36:26;17.98;;;9.65;;
49296;SDS011;35163;48.878;18.040;2022-09-09T06:38:53;26.08;;;10.40;;
49296;SDS011;35163;48.878;18.040;2022-09-09T06:41:21;29.77;;;12.23;;
49296;SDS011;35163;48.878;18.040;2022-09-09T06:43:49;32.88;;;10.27;;
49296;SDS011;35163;48.878;18.040;2022-09-09T06:46:19;18.15;;;10.45;;
49296;SDS011;35163;48.878;18.040;2022-09-09T06:48:53;22.55;;;11.13;;
49296;SDS011;35163;48.878;18.040;2022-09-09T06:51:29;19.92;;;11.57;;
49296;SDS011;35163;48.878;18.040;2022-09-09T06:53:58;25.27;;;13.23;;
49296;SDS011;35163;48.878;18.040;2022-09-09T06:56:27;24.92;;;11.60;;
49296;SDS011;35163;48.878;18.040;2022-09-09T06:58:59;19.15;;;10.43;;
49296;SDS011;35163;48.878;18.040;2022-09-09T07:01:30;19.08;;;10.38;;
49296;SDS011;35163;48.878;18.040;2022-09-09T07:03:59;19.17;;;9.93;;
49296;SDS011;35163;48.878;18.040;2022-09-09T07:06:30;23.88;;;10.80;;
49296;SDS011;35163;48.878;18.040;2022-09-09T07:09:00;15.35;;;9.20;;
49296;SDS011;35163;48.878;18.040;2022-09-09T07:11:31;18.17;;;10.32;;
49296;SDS011;35163;48.878;18.040;2022-09-09T07:14:00;15.02;;;9.43;;
49296;SDS011;35163;48.878;18.040;2022-09-09T07:16:27;19.38;;;10.55;;
49296;SDS011;35163;48.878;18.040;2022-09-09T07:18:55;18.50;;;10.25;;
49296;SDS011;35163;48.878;18.040;2022-09-09T07:21:25;19.63;;;10.90;;
49296;SDS011;35163;48.878;18.040;2022-09-09T07:23:52;19.30;;;9.55;;
49296;SDS011;35163;48.878;18.040;2022-09-09T07:26:22;14.07;;;8.90;;
49296;SDS011;35163;48.878;18.040;2022-09-09T07:28:51;17.00;;;10.07;;
49296;SDS011;35163;48.878;18.040;2022-09-09T07:31:18;13.32;;;8.13;;
49296;SDS011;35163;48.878;18.040;2022-09-09T07:33:47;14.90;;;8.38;;
49296;SDS011;35163;48.878;18.040;2022-09-09T07:38:46;13.32;;;7.45;;
49296;SDS011;35163;48.878;18.040;2022-09-09T07:41:16;14.48;;;7.95;;
49296;SDS011;35163;48.878;18.040;2022-09-09T07:43:46;15.20;;;7.90;;
49296;SDS011;35163;48.878;18.040;2022-09-09T07:46:14;17.23;;;8.07;;
49296;SDS011;35163;48.878;18.040;2022-09-09T07:48:49;14.90;;;6.70;;
49296;SDS011;35163;48.878;18.040;2022-09-09T07:51:27;13.77;;;6.38;;
49296;SDS011;35163;48.878;18.040;2022-09-09T07:53:56;19.67;;;6.63;;
49296;SDS011;35163;48.878;18.040;2022-09-09T07:56:25;10.18;;;6.03;;
49296;SDS011;35163;48.878;18.040;2022-09-09T07:58:53;10.13;;;5.50;;
49296;SDS011;35163;48.878;18.040;2022-09-09T08:01:23;14.75;;;7.50;;
49296;SDS011;35163;48.878;18.040;2022-09-09T08:04:04;12.35;;;7.55;;
49296;SDS011;35163;48.878;18.040;2022-09-09T08:06:37;16.40;;;6.72;;
49296;SDS011;35163;48.878;18.040;2022-09-09T08:09:06;10.10;;;6.53;;
49296;SDS011;35163;48.878;18.040;2022-09-09T08:11:33;11.57;;;6.47;;
49296;SDS011;35163;48.878;18.040;2022-09-09T08:14:05;10.20;;;5.95;;
49296;SDS011;35163;48.878;18.040;2022-09-09T08:16:34;10.02;;;5.97;;
49296;SDS011;35163;48.878;18.040;2022-09-09T08:19:03;6.68;;;3.75;;
49296;SDS011;35163;48.878;18.040;2022-09-09T08:21:33;8.88;;;4.50;;
49296;SDS011;35163;48.878;18.040;2022-09-09T08:24:01;8.27;;;4.78;;
49296;SDS011;35163;48.878;18.040;2022-09-09T08:26:30;9.27;;;5.30;;
49296;SDS011;35163;48.878;18.040;2022-09-09T08:28:58;11.45;;;4.22;;
49296;SDS011;35163;48.878;18.040;2022-09-09T08:31:30;10.40;;;4.82;;
49296;SDS011;35163;48.878;18.040;2022-09-09T08:33:59;8.93;;;4.80;;
49296;SDS011;35163;48.878;18.040;2022-09-09T08:36:29;6.57;;;4.10;;
49296;SDS011;35163;48.878;18.040;2022-09-09T08:39:00;9.90;;;4.50;;
49296;SDS011;35163;48.878;18.040;2022-09-09T08:47:00;8.50;;;5.00;;
49296;SDS011;35163;48.878;18.040;2022-09-09T08:52:48;8.35;;;4.75;;
49296;SDS011;35163;48.878;18.040;2022-09-09T08:55:56;10.73;;;6.28;;
49296;SDS011;35163;48.878;18.040;2022-09-09T08:58:26;7.13;;;4.28;;
49296;SDS011;35163;48.878;18.040;2022-09-09T09:08:54;7.80;;;3.58;;
49296;SDS011;35163;48.878;18.040;2022-09-09T09:11:38;9.50;;;4.97;;
49296;SDS011;35163;48.878;18.040;2022-09-09T09:14:25;8.77;;;5.20;;
49296;SDS011;35163;48.878;18.040;2022-09-09T09:19:31;6.78;;;3.50;;
49296;SDS011;35163;48.878;18.040;2022-09-09T09:22:23;6.25;;;3.40;;
49296;SDS011;35163;48.878;18.040;2022-09-09T09:27:58;4.72;;;2.75;;
49296;SDS011;35163;48.878;18.040;2022-09-09T09:33:21;2.90;;;2.05;;
49296;SDS011;35163;48.878;18.040;2022-09-09T09:35:50;6.65;;;2.50;;
49296;SDS011;35163;48.878;18.040;2022-09-09T09:38:23;3.30;;;2.25;;
49296;SDS011;35163;48.878;18.040;2022-09-09T09:41:11;2.67;;;2.05;;
49296;SDS011;35163;48.878;18.040;2022-09-09T09:43:40;3.92;;;1.95;;
49296;SDS011;35163;48.878;18.040;2022-09-09T09:46:20;4.32;;;2.28;;
49296;SDS011;35163;48.878;18.040;2022-09-09T09:49:00;2.35;;;1.70;;
49296;SDS011;35163;48.878;18.040;2022-09-09T09:51:35;3.90;;;1.90;;
49296;SDS011;35163;48.878;18.040;2022-09-09T09:54:26;4.80;;;1.92;;
49296;SDS011;35163;48.878;18.040;2022-09-09T09:56:53;3.17;;;1.50;;
49296;SDS011;35163;48.878;18.040;2022-09-09T10:04:47;2.58;;;1.50;;
49296;SDS011;35163;48.878;18.040;2022-09-09T10:07:18;5.28;;;2.50;;
49296;SDS011;35163;48.878;18.040;2022-09-09T10:09:53;3.25;;;1.80;;
49296;SDS011;35163;48.878;18.040;2022-09-09T10:21:12;2.58;;;1.30;;
49296;SDS011;35163;48.878;18.040;2022-09-09T10:27:01;2.50;;;1.38;;
49296;SDS011;35163;48.878;18.040;2022-09-09T10:35:21;1.67;;;1.38;;
49296;SDS011;35163;48.878;18.040;2022-09-09T10:41:11;2.80;;;1.77;;
49296;SDS011;35163;48.878;18.040;2022-09-09T10:57:31;3.33;;;1.65;;
49296;SDS011;35163;48.878;18.040;2022-09-09T11:00:05;2.90;;;1.60;;
49296;SDS011;35163;48.878;18.040;2022-09-09T11:02:39;2.58;;;1.45;;
49296;SDS011;35163;48.878;18.040;2022-09-09T11:07:48;2.20;;;1.20;;
49296;SDS011;35163;48.878;18.040;2022-09-09T11:13:26;2.15;;;1.30;;
49296;SDS011;35163;48.878;18.040;2022-09-09T11:21:53;1.80;;;1.20;;
49296;SDS011;35163;48.878;18.040;2022-09-09T11:24:44;1.95;;;1.05;;
49296;SDS011;35163;48.878;18.040;2022-09-09T11:40:26;2.92;;;1.60;;
49296;SDS011;35163;48.878;18.040;2022-09-09T11:43:01;2.00;;;1.40;;
49296;SDS011;35163;48.878;18.040;2022-09-09T11:45:52;2.45;;;1.17;;
49296;SDS011;35163;48.878;18.040;2022-09-09T11:48:28;4.22;;;1.38;;
49296;SDS011;35163;48.878;18.040;2022-09-09T11:50:59;3.55;;;1.20;;
49296;SDS011;35163;48.878;18.040;2022-09-09T11:53:31;4.22;;;1.10;;
49296;SDS011;35163;48.878;18.040;2022-09-09T11:56:11;2.13;;;1.05;;
49296;SDS011;35163;48.878;18.040;2022-09-09T11:58:43;2.67;;;1.20;;
49296;SDS011;35163;48.878;18.040;2022-09-09T12:04:01;1.67;;;1.08;;
49296;SDS011;35163;48.878;18.040;2022-09-09T12:07:21;3.08;;;1.50;;
49296;SDS011;35163;48.878;18.040;2022-09-09T12:12:32;3.58;;;1.42;;
49296;SDS011;35163;48.878;18.040;2022-09-09T12:15:16;4.22;;;1.48;;
49296;SDS011;35163;48.878;18.040;2022-09-09T12:17:48;3.72;;;1.33;;
49296;SDS011;35163;48.878;18.040;2022-09-09T12:20:23;1.63;;;1.20;;
49296;SDS011;35163;48.878;18.040;2022-09-09T12:28:22;2.35;;;1.02;;
49296;SDS011;35163;48.878;18.040;2022-09-09T12:33:35;1.83;;;1.02;;
49296;SDS011;35163;48.878;18.040;2022-09-09T12:36:04;4.43;;;1.15;;
49296;SDS011;35163;48.878;18.040;2022-09-09T12:38:38;2.10;;;1.00;;
49296;SDS011;35163;48.878;18.040;2022-09-09T12:41:21;3.50;;;1.17;;
49296;SDS011;35163;48.878;18.040;2022-09-09T12:43:49;3.00;;;1.10;;
49296;SDS011;35163;48.878;18.040;2022-09-09T12:46:20;2.15;;;0.82;;
49296;SDS011;35163;48.878;18.040;2022-09-09T12:48:48;4.38;;;1.30;;
49296;SDS011;35163;48.878;18.040;2022-09-09T12:51:23;6.35;;;1.67;;
49296;SDS011;35163;48.878;18.040;2022-09-09T12:53:54;2.85;;;1.20;;
49296;SDS011;35163;48.878;18.040;2022-09-09T12:56:23;3.65;;;1.20;;
49296;SDS011;35163;48.878;18.040;2022-09-09T12:58:55;4.18;;;1.88;;
49296;SDS011;35163;48.878;18.040;2022-09-09T13:01:26;4.07;;;1.55;;
49296;SDS011;35163;48.878;18.040;2022-09-09T13:03:52;1.40;;;0.80;;
49296;SDS011;35163;48.878;18.040;2022-09-09T13:06:21;4.70;;;1.30;;
49296;SDS011;35163;48.878;18.040;2022-09-09T13:08:55;4.30;;;1.20;;
49296;SDS011;35163;48.878;18.040;2022-09-09T13:11:29;2.25;;;0.98;;
49296;SDS011;35163;48.878;18.040;2022-09-09T13:14:01;1.70;;;0.90;;
49296;SDS011;35163;48.878;18.040;2022-09-09T13:16:29;1.67;;;1.05;;
49296;SDS011;35163;48.878;18.040;2022-09-09T13:19:00;3.70;;;1.20;;
49296;SDS011;35163;48.878;18.040;2022-09-09T13:21:33;3.45;;;1.00;;
49296;SDS011;35163;48.878;18.040;2022-09-09T13:24:01;2.13;;;1.05;;
49296;SDS011;35163;48.878;18.040;2022-09-09T13:26:30;2.83;;;0.85;;
49296;SDS011;35163;48.878;18.040;2022-09-09T13:29:16;1.77;;;0.90;;
49296;SDS011;35163;48.878;18.040;2022-09-09T13:31:44;2.83;;;1.13;;
49296;SDS011;35163;48.878;18.040;2022-09-09T13:34:12;4.78;;;1.10;;
49296;SDS011;35163;48.878;18.040;2022-09-09T13:37:02;2.85;;;0.80;;
49296;SDS011;35163;48.878;18.040;2022-09-09T13:39:34;3.38;;;1.00;;
49296;SDS011;35163;48.878;18.040;2022-09-09T13:42:03;5.03;;;1.00;;
49296;SDS011;35163;48.878;18.040;2022-09-09T13:44:31;1.88;;;1.10;;
49296;SDS011;35163;48.878;18.040;2022-09-09T13:47:03;2.13;;;1.02;;
49296;SDS011;35163;48.878;18.040;2022-09-09T13:49:36;2.10;;;0.90;;
49296;SDS011;35163;48.878;18.040;2022-09-09T13:52:03;1.65;;;0.77;;
49296;SDS011;35163;48.878;18.040;2022-09-09T13:54:35;3.05;;;0.95;;
49296;SDS011;35163;48.878;18.040;2022-09-09T13:57:01;3.45;;;1.17;;
49296;SDS011;35163;48.878;18.040;2022-09-09T13:59:28;3.30;;;0.82;;
49296;SDS011;35163;48.878;18.040;2022-09-09T14:02:15;6.68;;;1.10;;
49296;SDS011;35163;48.878;18.040;2022-09-09T14:04:43;4.75;;;1.00;;
49296;SDS011;35163;48.878;18.040;2022-09-09T14:07:13;2.50;;;1.30;;
49296;SDS011;35163;48.878;18.040;2022-09-09T14:09:43;6.18;;;3.05;;
49296;SDS011;35163;48.878;18.040;2022-09-09T14:12:10;3.10;;;1.40;;
49296;SDS011;35163;48.878;18.040;2022-09-09T14:14:38;2.85;;;1.00;;
49296;SDS011;35163;48.878;18.040;2022-09-09T14:17:05;3.55;;;1.20;;
49296;SDS011;35163;48.878;18.040;2022-09-09T14:19:33;2.17;;;0.98;;
49296;SDS011;35163;48.878;18.040;2022-09-09T14:22:00;3.85;;;1.45;;
49296;SDS011;35163;48.878;18.040;2022-09-09T14:24:27;4.70;;;1.55;;
49296;SDS011;35163;48.878;18.040;2022-09-09T14:26:57;3.47;;;1.40;;
49296;SDS011;35163;48.878;18.040;2022-09-09T14:29:23;3.63;;;1.00;;
49296;SDS011;35163;48.878;18.040;2022-09-09T14:31:52;1.98;;;0.95;;
49296;SDS011;35163;48.878;18.040;2022-09-09T14:34:19;5.13;;;0.80;;
49296;SDS011;35163;48.878;18.040;2022-09-09T14:36:45;3.03;;;1.20;;
49296;SDS011;35163;48.878;18.040;2022-09-09T14:39:14;2.15;;;0.90;;
49296;SDS011;35163;48.878;18.040;2022-09-09T14:41:40;1.52;;;0.95;;
49296;SDS011;35163;48.878;18.040;2022-09-09T14:44:07;6.72;;;1.58;;
49296;SDS011;35163;48.878;18.040;2022-09-09T14:46:34;3.13;;;1.42;;
49296;SDS011;35163;48.878;18.040;2022-09-09T14:49:01;8.82;;;1.63;;
49296;SDS011;35163;48.878;18.040;2022-09-09T14:51:27;2.67;;;1.08;;
49296;SDS011;35163;48.878;18.040;2022-09-09T14:53:55;2.22;;;1.10;;
49296;SDS011;35163;48.878;18.040;2022-09-09T14:56:25;4.93;;;1.30;;
49296;SDS011;35163;48.878;18.040;2022-09-09T14:58:54;5.45;;;1.17;;
49296;SDS011;35163;48.878;18.040;2022-09-09T15:01:21;4.95;;;1.08;;
49296;SDS011;35163;48.878;18.040;2022-09-09T15:03:50;3.22;;;1.10;;
49296;SDS011;35163;48.878;18.040;2022-09-09T15:06:19;2.75;;;1.35;;
49296;SDS011;35163;48.878;18.040;2022-09-09T15:08:47;2.33;;;1.10;;
49296;SDS011;35163;48.878;18.040;2022-09-09T15:11:16;6.10;;;2.55;;
49296;SDS011;35163;48.878;18.040;2022-09-09T15:13:43;11.63;;;3.40;;
49296;SDS011;35163;48.878;18.040;2022-09-09T15:16:11;2.55;;;1.17;;
49296;SDS011;35163;48.878;18.040;2022-09-09T15:18:40;5.32;;;1.38;;
49296;SDS011;35163;48.878;18.040;2022-09-09T15:21:18;2.13;;;1.08;;
49296;SDS011;35163;48.878;18.040;2022-09-09T15:23:47;2.53;;;1.00;;
49296;SDS011;35163;48.878;18.040;2022-09-09T15:26:14;7.63;;;1.20;;
49296;SDS011;35163;48.878;18.040;2022-09-09T15:28:42;2.92;;;1.23;;
49296;SDS011;35163;48.878;18.040;2022-09-09T15:31:11;3.47;;;1.30;;
49296;SDS011;35163;48.878;18.040;2022-09-09T15:33:40;4.20;;;1.58;;
49296;SDS011;35163;48.878;18.040;2022-09-09T15:38:44;2.90;;;1.38;;
49296;SDS011;35163;48.878;18.040;2022-09-09T15:41:12;4.55;;;1.20;;
49296;SDS011;35163;48.878;18.040;2022-09-09T15:43:43;4.13;;;1.60;;
49296;SDS011;35163;48.878;18.040;2022-09-09T15:46:22;2.92;;;1.30;;
49296;SDS011;35163;48.878;18.040;2022-09-09T15:49:08;2.60;;;1.15;;
49296;SDS011;35163;48.878;18.040;2022-09-09T15:51:55;2.55;;;1.02;;
49296;SDS011;35163;48.878;18.040;2022-09-09T15:54:24;3.83;;;1.70;;
49296;SDS011;35163;48.878;18.040;2022-09-09T15:56:56;3.25;;;1.73;;
49296;SDS011;35163;48.878;18.040;2022-09-09T15:59:25;4.10;;;1.45;;
49296;SDS011;35163;48.878;18.040;2022-09-09T16:01:54;2.55;;;1.45;;
49296;SDS011;35163;48.878;18.040;2022-09-09T16:04:21;8.23;;;1.77;;
49296;SDS011;35163;48.878;18.040;2022-09-09T16:06:53;9.93;;;1.88;;
49296;SDS011;35163;48.878;18.040;2022-09-09T16:09:30;9.25;;;1.92;;
49296;SDS011;35163;48.878;18.040;2022-09-09T16:11:59;9.57;;;2.28;;
49296;SDS011;35163;48.878;18.040;2022-09-09T16:14:27;12.35;;;2.00;;
49296;SDS011;35163;48.878;18.040;2022-09-09T16:16:54;9.48;;;1.90;;
49296;SDS011;35163;48.878;18.040;2022-09-09T16:19:23;5.45;;;1.63;;
49296;SDS011;35163;48.878;18.040;2022-09-09T16:21:49;10.70;;;2.10;;
49296;SDS011;35163;48.878;18.040;2022-09-09T16:24:17;7.97;;;2.08;;
49296;SDS011;35163;48.878;18.040;2022-09-09T16:26:46;6.90;;;2.20;;
49296;SDS011;35163;48.878;18.040;2022-09-09T16:29:15;4.82;;;2.13;;
49296;SDS011;35163;48.878;18.040;2022-09-09T16:31:43;2.92;;;1.60;;
49296;SDS011;35163;48.878;18.040;2022-09-09T16:34:11;4.95;;;1.73;;
49296;SDS011;35163;48.878;18.040;2022-09-09T16:36:39;4.18;;;2.03;;
49296;SDS011;35163;48.878;18.040;2022-09-09T16:39:07;4.20;;;1.65;;
49296;SDS011;35163;48.878;18.040;2022-09-09T16:41:36;5.30;;;2.10;;
49296;SDS011;35163;48.878;18.040;2022-09-09T16:44:05;4.47;;;1.73;;
49296;SDS011;35163;48.878;18.040;2022-09-09T16:46:34;5.55;;;1.83;;
49296;SDS011;35163;48.878;18.040;2022-09-09T16:49:03;5.15;;;2.10;;
49296;SDS011;35163;48.878;18.040;2022-09-09T16:51:32;4.05;;;1.85;;
49296;SDS011;35163;48.878;18.040;2022-09-09T16:54:02;4.82;;;2.00;;
49296;SDS011;35163;48.878;18.040;2022-09-09T16:56:31;5.40;;;1.65;;
49296;SDS011;35163;48.878;18.040;2022-09-09T16:59:04;6.75;;;1.77;;
49296;SDS011;35163;48.878;18.040;2022-09-09T17:01:34;5.30;;;1.90;;
49296;SDS011;35163;48.878;18.040;2022-09-09T17:04:05;6.20;;;1.92;;
49296;SDS011;35163;48.878;18.040;2022-09-09T17:06:45;5.85;;;1.85;;
49296;SDS011;35163;48.878;18.040;2022-09-09T17:09:15;5.70;;;2.55;;
49296;SDS011;35163;48.878;18.040;2022-09-09T17:11:43;6.82;;;2.58;;
49296;SDS011;35163;48.878;18.040;2022-09-09T17:14:13;5.30;;;2.15;;
49296;SDS011;35163;48.878;18.040;2022-09-09T17:16:41;5.65;;;2.08;;
49296;SDS011;35163;48.878;18.040;2022-09-09T17:19:08;5.30;;;2.05;;
49296;SDS011;35163;48.878;18.040;2022-09-09T17:21:36;6.22;;;2.40;;
49296;SDS011;35163;48.878;18.040;2022-09-09T17:24:23;8.13;;;1.65;;
49296;SDS011;35163;48.878;18.040;2022-09-09T17:26:51;4.43;;;2.03;;